sensor_id;sensor_type;location;lat;lon;timestamp;P1;durP1;ratioP1;P2;durP2;ratioP2
1128;SDS011;553;51.038;7.216;2022-10-19T00:00:49;14.73;;;5.27;;
1128;SDS011;553;51.038;7.216;2022-10-19T00:03:16;15.00;;;4.90;;
1128;SDS011;553;51.038;7.216;2022-10-19T00:05:48;16.43;;;4.73;;
1128;SDS011;553;51.038;7.216;2022-10-19T00:08:14;11.83;;;4.73;;
1128;SDS011;553;51.038;7.216;2022-10-19T00:10:41;9.23;;;4.93;;
1128;SDS011;553;51.038;7.216;2022-10-19T00:13:08;10.70;;;5.23;;
1128;SDS011;553;51.038;7.216;2022-10-19T00:15:38;13.63;;;4.90;;
1128;SDS011;553;51.038;7.216;2022-10-19T00:18:06;14.73;;;5.00;;
1128;SDS011;553;51.038;7.216;2022-10-19T00:20:34;11.37;;;4.37;;
1128;SDS011;553;51.038;7.216;2022-10-19T00:23:02;10.33;;;5.30;;
1128;SDS011;553;51.038;7.216;2022-10-19T00:25:29;9.93;;;5.60;;
1128;SDS011;553;51.038;7.216;2022-10-19T00:27:55;9.93;;;5.03;;
1128;SDS011;553;51.038;7.216;2022-10-19T00:30:22;9.07;;;5.10;;
1128;SDS011;553;51.038;7.216;2022-10-19T00:32:48;12.77;;;4.97;;
1128;SDS011;553;51.038;7.216;2022-10-19T00:35:15;12.50;;;5.57;;
1128;SDS011;553;51.038;7.216;2022-10-19T00:37:42;9.40;;;5.20;;
1128;SDS011;553;51.038;7.216;2022-10-19T00:40:08;12.90;;;5.53;;
1128;SDS011;553;51.038;7.216;2022-10-19T00:42:35;11.37;;;5.97;;
1128;SDS011;553;51.038;7.216;2022-10-19T00:45:08;10.70;;;5.60;;
1128;SDS011;553;51.038;7.216;2022-10-19T00:47:39;7.93;;;5.20;;
1128;SDS011;553;51.038;7.216;2022-10-19T00:50:06;11.30;;;5.50;;
1128;SDS011;553;51.038;7.216;2022-10-19T00:52:33;12.23;;;5.27;;
1128;SDS011;553;51.038;7.216;2022-10-19T00:55:01;9.90;;;5.30;;
1128;SDS011;553;51.038;7.216;2022-10-19T00:57:28;15.80;;;6.70;;
1128;SDS011;553;51.038;7.216;2022-10-19T00:59:56;13.17;;;6.13;;
1128;SDS011;553;51.038;7.216;2022-10-19T01:02:25;13.20;;;5.43;;
1128;SDS011;553;51.038;7.216;2022-10-19T01:04:51;9.83;;;5.83;;
1128;SDS011;553;51.038;7.216;2022-10-19T01:07:18;7.73;;;5.80;;
1128;SDS011;553;51.038;7.216;2022-10-19T01:09:45;17.80;;;6.67;;
1128;SDS011;553;51.038;7.216;2022-10-19T01:17:57;13.90;;;6.87;;
1128;SDS011;553;51.038;7.216;2022-10-19T01:20:57;11.50;;;7.63;;
1128;SDS011;553;51.038;7.216;2022-10-19T01:24:01;12.53;;;6.40;;
1128;SDS011;553;51.038;7.216;2022-10-19T01:32:48;12.33;;;5.70;;
1128;SDS011;553;51.038;7.216;2022-10-19T01:35:27;14.63;;;7.70;;
1128;SDS011;553;51.038;7.216;2022-10-19T01:40:53;10.93;;;5.70;;
1128;SDS011;553;51.038;7.216;2022-10-19T01:43:48;19.80;;;7.33;;
1128;SDS011;553;51.038;7.216;2022-10-19T01:46:29;14.23;;;6.53;;
1128;SDS011;553;51.038;7.216;2022-10-19T01:51:44;16.33;;;7.33;;
1128;SDS011;553;51.038;7.216;2022-10-19T01:54:19;11.40;;;7.07;;
1128;SDS011;553;51.038;7.216;2022-10-19T01:56:47;27.73;;;7.10;;
1128;SDS011;553;51.038;7.216;2022-10-19T01:59:15;15.97;;;8.30;;
1128;SDS011;553;51.038;7.216;2022-10-19T02:01:45;16.37;;;8.30;;
1128;SDS011;553;51.038;7.216;2022-10-19T02:04:15;13.93;;;7.37;;
1128;SDS011;553;51.038;7.216;2022-10-19T02:06:44;18.70;;;8.10;;
1128;SDS011;553;51.038;7.216;2022-10-19T02:09:11;15.50;;;7.60;;
1128;SDS011;553;51.038;7.216;2022-10-19T02:11:46;19.33;;;6.63;;
1128;SDS011;553;51.038;7.216;2022-10-19T02:14:23;14.57;;;6.80;;
1128;SDS011;553;51.038;7.216;2022-10-19T02:17:04;16.50;;;5.80;;
1128;SDS011;553;51.038;7.216;2022-10-19T02:19:34;14.33;;;6.40;;
1128;SDS011;553;51.038;7.216;2022-10-19T02:22:01;11.60;;;6.53;;
1128;SDS011;553;51.038;7.216;2022-10-19T02:24:28;16.37;;;6.33;;
1128;SDS011;553;51.038;7.216;2022-10-19T02:26:55;15.33;;;6.20;;
1128;SDS011;553;51.038;7.216;2022-10-19T02:29:21;12.20;;;6.23;;
1128;SDS011;553;51.038;7.216;2022-10-19T02:31:48;14.33;;;6.30;;
1128;SDS011;553;51.038;7.216;2022-10-19T02:34:15;12.67;;;7.70;;
1128;SDS011;553;51.038;7.216;2022-10-19T02:36:42;10.93;;;5.90;;
1128;SDS011;553;51.038;7.216;2022-10-19T02:39:08;11.33;;;6.20;;
1128;SDS011;553;51.038;7.216;2022-10-19T02:41:37;12.80;;;6.67;;
1128;SDS011;553;51.038;7.216;2022-10-19T02:44:09;16.23;;;7.00;;
1128;SDS011;553;51.038;7.216;2022-10-19T02:46:51;13.30;;;6.87;;
1128;SDS011;553;51.038;7.216;2022-10-19T02:49:22;18.83;;;6.80;;
1128;SDS011;553;51.038;7.216;2022-10-19T02:52:00;16.63;;;7.30;;
1128;SDS011;553;51.038;7.216;2022-10-19T02:54:34;16.20;;;6.70;;
1128;SDS011;553;51.038;7.216;2022-10-19T02:57:02;12.90;;;6.40;;
1128;SDS011;553;51.038;7.216;2022-10-19T02:59:34;11.60;;;6.13;;
1128;SDS011;553;51.038;7.216;2022-10-19T03:02:01;10.80;;;6.70;;
1128;SDS011;553;51.038;7.216;2022-10-19T03:04:27;13.20;;;7.77;;
1128;SDS011;553;51.038;7.216;2022-10-19T03:06:54;13.00;;;7.50;;
1128;SDS011;553;51.038;7.216;2022-10-19T03:09:21;11.43;;;6.70;;
1128;SDS011;553;51.038;7.216;2022-10-19T03:11:47;13.10;;;7.93;;
1128;SDS011;553;51.038;7.216;2022-10-19T03:14:14;10.60;;;7.20;;
1128;SDS011;553;51.038;7.216;2022-10-19T03:16:40;11.97;;;7.20;;
1128;SDS011;553;51.038;7.216;2022-10-19T03:19:07;13.90;;;7.17;;
1128;SDS011;553;51.038;7.216;2022-10-19T03:21:34;14.20;;;7.00;;
1128;SDS011;553;51.038;7.216;2022-10-19T03:24:01;13.93;;;7.30;;
1128;SDS011;553;51.038;7.216;2022-10-19T03:26:27;12.23;;;6.63;;
1128;SDS011;553;51.038;7.216;2022-10-19T03:28:54;12.33;;;7.10;;
1128;SDS011;553;51.038;7.216;2022-10-19T03:31:20;12.63;;;6.30;;
1128;SDS011;553;51.038;7.216;2022-10-19T03:33:47;11.97;;;7.03;;
1128;SDS011;553;51.038;7.216;2022-10-19T03:38:52;13.10;;;6.57;;
1128;SDS011;553;51.038;7.216;2022-10-19T03:41:21;14.63;;;5.97;;
1128;SDS011;553;51.038;7.216;2022-10-19T03:43:49;15.13;;;6.07;;
1128;SDS011;553;51.038;7.216;2022-10-19T03:46:16;10.97;;;6.90;;
1128;SDS011;553;51.038;7.216;2022-10-19T03:48:43;8.83;;;6.00;;
1128;SDS011;553;51.038;7.216;2022-10-19T03:51:11;18.00;;;6.97;;
1128;SDS011;553;51.038;7.216;2022-10-19T03:53:40;13.00;;;6.60;;
1128;SDS011;553;51.038;7.216;2022-10-19T03:56:09;11.57;;;6.23;;
1128;SDS011;553;51.038;7.216;2022-10-19T03:58:37;16.57;;;6.63;;
1128;SDS011;553;51.038;7.216;2022-10-19T04:01:06;11.83;;;5.73;;
1128;SDS011;553;51.038;7.216;2022-10-19T04:03:41;14.57;;;6.27;;
1128;SDS011;553;51.038;7.216;2022-10-19T04:06:12;16.87;;;6.80;;
1128;SDS011;553;51.038;7.216;2022-10-19T04:08:47;9.30;;;5.20;;
1128;SDS011;553;51.038;7.216;2022-10-19T04:11:19;12.30;;;5.60;;
1128;SDS011;553;51.038;7.216;2022-10-19T04:13:48;10.77;;;5.43;;
1128;SDS011;553;51.038;7.216;2022-10-19T04:16:16;14.80;;;6.40;;
1128;SDS011;553;51.038;7.216;2022-10-19T04:18:43;17.43;;;6.37;;
1128;SDS011;553;51.038;7.216;2022-10-19T04:21:21;11.83;;;6.20;;
1128;SDS011;553;51.038;7.216;2022-10-19T04:23:48;16.20;;;6.33;;
1128;SDS011;553;51.038;7.216;2022-10-19T04:26:19;9.93;;;5.30;;
1128;SDS011;553;51.038;7.216;2022-10-19T04:28:46;9.73;;;5.50;;
1128;SDS011;553;51.038;7.216;2022-10-19T04:31:12;10.50;;;5.60;;
1128;SDS011;553;51.038;7.216;2022-10-19T04:33:39;11.33;;;6.33;;
1128;SDS011;553;51.038;7.216;2022-10-19T04:36:07;15.67;;;6.53;;
1128;SDS011;553;51.038;7.216;2022-10-19T04:38:35;16.17;;;6.20;;
1128;SDS011;553;51.038;7.216;2022-10-19T04:41:07;13.60;;;6.87;;
1128;SDS011;553;51.038;7.216;2022-10-19T04:43:36;12.57;;;6.20;;
1128;SDS011;553;51.038;7.216;2022-10-19T04:46:09;14.03;;;6.33;;
1128;SDS011;553;51.038;7.216;2022-10-19T04:48:40;14.17;;;5.93;;
1128;SDS011;553;51.038;7.216;2022-10-19T04:51:08;15.67;;;6.93;;
1128;SDS011;553;51.038;7.216;2022-10-19T04:53:35;14.90;;;5.70;;
1128;SDS011;553;51.038;7.216;2022-10-19T04:56:04;13.23;;;6.60;;
1128;SDS011;553;51.038;7.216;2022-10-19T04:58:36;9.33;;;5.97;;
1128;SDS011;553;51.038;7.216;2022-10-19T05:01:09;13.83;;;7.20;;
1128;SDS011;553;51.038;7.216;2022-10-19T05:03:37;14.20;;;6.10;;
1128;SDS011;553;51.038;7.216;2022-10-19T05:06:05;17.60;;;7.20;;
1128;SDS011;553;51.038;7.216;2022-10-19T05:08:32;11.80;;;6.10;;
1128;SDS011;553;51.038;7.216;2022-10-19T05:11:00;10.70;;;6.40;;
1128;SDS011;553;51.038;7.216;2022-10-19T05:13:32;13.67;;;7.17;;
1128;SDS011;553;51.038;7.216;2022-10-19T05:16:00;16.93;;;7.60;;
1128;SDS011;553;51.038;7.216;2022-10-19T05:18:29;16.97;;;7.57;;
1128;SDS011;553;51.038;7.216;2022-10-19T05:21:00;10.63;;;6.40;;
1128;SDS011;553;51.038;7.216;2022-10-19T05:23:29;13.20;;;6.60;;
1128;SDS011;553;51.038;7.216;2022-10-19T05:25:58;18.60;;;7.30;;
1128;SDS011;553;51.038;7.216;2022-10-19T05:28:29;11.93;;;6.17;;
1128;SDS011;553;51.038;7.216;2022-10-19T05:31:03;13.10;;;7.20;;
1128;SDS011;553;51.038;7.216;2022-10-19T05:33:31;13.37;;;6.40;;
1128;SDS011;553;51.038;7.216;2022-10-19T05:35:58;11.03;;;6.70;;
1128;SDS011;553;51.038;7.216;2022-10-19T05:38:25;10.90;;;6.30;;
1128;SDS011;553;51.038;7.216;2022-10-19T05:40:51;13.20;;;7.13;;
1128;SDS011;553;51.038;7.216;2022-10-19T05:43:18;14.20;;;6.87;;
1128;SDS011;553;51.038;7.216;2022-10-19T05:45:45;11.77;;;6.30;;
1128;SDS011;553;51.038;7.216;2022-10-19T05:48:12;10.23;;;7.13;;
1128;SDS011;553;51.038;7.216;2022-10-19T05:50:38;14.50;;;8.40;;
1128;SDS011;553;51.038;7.216;2022-10-19T05:53:05;13.33;;;8.30;;
1128;SDS011;553;51.038;7.216;2022-10-19T05:55:33;15.30;;;9.40;;
1128;SDS011;553;51.038;7.216;2022-10-19T05:58:00;16.83;;;9.30;;
1128;SDS011;553;51.038;7.216;2022-10-19T06:00:27;18.77;;;8.87;;
1128;SDS011;553;51.038;7.216;2022-10-19T06:02:54;19.70;;;11.47;;
1128;SDS011;553;51.038;7.216;2022-10-19T06:05:24;18.13;;;9.90;;
1128;SDS011;553;51.038;7.216;2022-10-19T06:07:51;22.67;;;10.47;;
1128;SDS011;553;51.038;7.216;2022-10-19T06:10:17;20.50;;;11.33;;
1128;SDS011;553;51.038;7.216;2022-10-19T06:12:46;27.60;;;11.00;;
1128;SDS011;553;51.038;7.216;2022-10-19T06:15:12;16.17;;;10.93;;
1128;SDS011;553;51.038;7.216;2022-10-19T06:17:39;19.23;;;10.83;;
1128;SDS011;553;51.038;7.216;2022-10-19T06:20:06;19.20;;;10.63;;
1128;SDS011;553;51.038;7.216;2022-10-19T06:22:33;20.53;;;11.00;;
1128;SDS011;553;51.038;7.216;2022-10-19T06:24:59;17.50;;;12.10;;
1128;SDS011;553;51.038;7.216;2022-10-19T06:27:26;20.60;;;11.23;;
1128;SDS011;553;51.038;7.216;2022-10-19T06:29:55;19.03;;;11.67;;
1128;SDS011;553;51.038;7.216;2022-10-19T06:32:22;15.33;;;10.00;;
1128;SDS011;553;51.038;7.216;2022-10-19T06:34:48;21.43;;;11.50;;
1128;SDS011;553;51.038;7.216;2022-10-19T06:37:20;24.37;;;12.20;;
1128;SDS011;553;51.038;7.216;2022-10-19T06:39:47;18.63;;;11.60;;
1128;SDS011;553;51.038;7.216;2022-10-19T06:42:14;18.03;;;12.27;;
1128;SDS011;553;51.038;7.216;2022-10-19T06:44:40;16.70;;;11.23;;
1128;SDS011;553;51.038;7.216;2022-10-19T06:47:07;18.00;;;12.10;;
1128;SDS011;553;51.038;7.216;2022-10-19T06:49:34;20.00;;;11.53;;
1128;SDS011;553;51.038;7.216;2022-10-19T06:52:01;16.07;;;10.53;;
1128;SDS011;553;51.038;7.216;2022-10-19T06:54:28;26.23;;;12.03;;
1128;SDS011;553;51.038;7.216;2022-10-19T06:56:54;25.03;;;12.63;;
1128;SDS011;553;51.038;7.216;2022-10-19T06:59:21;21.97;;;11.87;;
1128;SDS011;553;51.038;7.216;2022-10-19T07:01:47;25.33;;;11.10;;
1128;SDS011;553;51.038;7.216;2022-10-19T07:04:14;16.50;;;10.40;;
1128;SDS011;553;51.038;7.216;2022-10-19T07:06:41;19.07;;;10.40;;
1128;SDS011;553;51.038;7.216;2022-10-19T07:09:07;17.23;;;11.40;;
1128;SDS011;553;51.038;7.216;2022-10-19T07:11:34;17.93;;;10.80;;
1128;SDS011;553;51.038;7.216;2022-10-19T07:14:01;21.17;;;12.27;;
1128;SDS011;553;51.038;7.216;2022-10-19T07:16:27;20.17;;;11.20;;
1128;SDS011;553;51.038;7.216;2022-10-19T07:18:54;21.10;;;12.30;;
1128;SDS011;553;51.038;7.216;2022-10-19T07:21:21;16.83;;;11.10;;
1128;SDS011;553;51.038;7.216;2022-10-19T07:23:49;20.10;;;12.90;;
1128;SDS011;553;51.038;7.216;2022-10-19T07:26:16;16.10;;;10.23;;
1128;SDS011;553;51.038;7.216;2022-10-19T07:28:46;15.00;;;10.17;;
1128;SDS011;553;51.038;7.216;2022-10-19T07:31:15;20.63;;;10.97;;
1128;SDS011;553;51.038;7.216;2022-10-19T07:33:43;23.60;;;11.10;;
1128;SDS011;553;51.038;7.216;2022-10-19T07:36:10;19.50;;;10.20;;
1128;SDS011;553;51.038;7.216;2022-10-19T07:38:38;17.50;;;10.70;;
1128;SDS011;553;51.038;7.216;2022-10-19T07:41:07;20.63;;;10.60;;
1128;SDS011;553;51.038;7.216;2022-10-19T07:43:38;18.30;;;10.60;;
1128;SDS011;553;51.038;7.216;2022-10-19T07:46:06;16.83;;;10.67;;
1128;SDS011;553;51.038;7.216;2022-10-19T07:48:35;15.80;;;9.97;;
1128;SDS011;553;51.038;7.216;2022-10-19T07:51:04;18.47;;;10.93;;
1128;SDS011;553;51.038;7.216;2022-10-19T07:53:32;18.50;;;10.50;;
1128;SDS011;553;51.038;7.216;2022-10-19T07:56:03;17.43;;;9.77;;
1128;SDS011;553;51.038;7.216;2022-10-19T07:58:32;15.30;;;10.67;;
1128;SDS011;553;51.038;7.216;2022-10-19T08:01:00;16.13;;;9.57;;
1128;SDS011;553;51.038;7.216;2022-10-19T08:03:35;13.93;;;9.33;;
1128;SDS011;553;51.038;7.216;2022-10-19T08:06:22;13.43;;;9.07;;
1128;SDS011;553;51.038;7.216;2022-10-19T08:08:49;19.17;;;9.47;;
1128;SDS011;553;51.038;7.216;2022-10-19T08:11:18;14.93;;;8.13;;
1128;SDS011;553;51.038;7.216;2022-10-19T08:13:48;15.43;;;7.30;;
1128;SDS011;553;51.038;7.216;2022-10-19T08:18:58;14.33;;;7.10;;
1128;SDS011;553;51.038;7.216;2022-10-19T08:21:26;14.47;;;7.80;;
1128;SDS011;553;51.038;7.216;2022-10-19T08:23:54;11.47;;;6.90;;
1128;SDS011;553;51.038;7.216;2022-10-19T08:26:21;7.80;;;5.73;;
1128;SDS011;553;51.038;7.216;2022-10-19T08:28:47;11.30;;;6.20;;
1128;SDS011;553;51.038;7.216;2022-10-19T08:31:18;13.60;;;6.77;;
1128;SDS011;553;51.038;7.216;2022-10-19T08:33:48;13.50;;;6.20;;
1128;SDS011;553;51.038;7.216;2022-10-19T08:36:16;9.37;;;6.17;;
1128;SDS011;553;51.038;7.216;2022-10-19T08:38:44;9.07;;;5.43;;
1128;SDS011;553;51.038;7.216;2022-10-19T08:43:58;11.53;;;5.80;;
1128;SDS011;553;51.038;7.216;2022-10-19T08:49:18;10.33;;;5.13;;
1128;SDS011;553;51.038;7.216;2022-10-19T08:51:53;11.90;;;5.97;;
1128;SDS011;553;51.038;7.216;2022-10-19T08:54:24;6.30;;;4.57;;
1128;SDS011;553;51.038;7.216;2022-10-19T08:59:53;7.07;;;4.87;;
1128;SDS011;553;51.038;7.216;2022-10-19T09:08:00;8.27;;;4.73;;
1128;SDS011;553;51.038;7.216;2022-10-19T09:10:28;8.80;;;4.43;;
1128;SDS011;553;51.038;7.216;2022-10-19T09:15:41;6.10;;;4.53;;
1128;SDS011;553;51.038;7.216;2022-10-19T09:18:17;6.33;;;4.23;;
1128;SDS011;553;51.038;7.216;2022-10-19T09:20:46;6.90;;;3.80;;
1128;SDS011;553;51.038;7.216;2022-10-19T09:23:25;5.90;;;3.70;;
1128;SDS011;553;51.038;7.216;2022-10-19T09:25:55;5.77;;;3.40;;
1128;SDS011;553;51.038;7.216;2022-10-19T09:28:35;6.00;;;3.00;;
1128;SDS011;553;51.038;7.216;2022-10-19T09:34:16;7.53;;;3.53;;
1128;SDS011;553;51.038;7.216;2022-10-19T09:36:48;6.97;;;3.40;;
1128;SDS011;553;51.038;7.216;2022-10-19T09:39:18;5.30;;;2.77;;
1128;SDS011;553;51.038;7.216;2022-10-19T09:41:56;5.77;;;3.00;;
1128;SDS011;553;51.038;7.216;2022-10-19T09:44:29;4.60;;;2.70;;
1128;SDS011;553;51.038;7.216;2022-10-19T09:47:07;5.60;;;2.80;;
1128;SDS011;553;51.038;7.216;2022-10-19T09:52:35;3.93;;;2.63;;
1128;SDS011;553;51.038;7.216;2022-10-19T09:57:31;7.57;;;3.33;;
1128;SDS011;553;51.038;7.216;2022-10-19T09:59:59;5.77;;;3.40;;
1128;SDS011;553;51.038;7.216;2022-10-19T10:02:30;5.07;;;2.80;;
1128;SDS011;553;51.038;7.216;2022-10-19T10:05:04;5.40;;;2.97;;
1128;SDS011;553;51.038;7.216;2022-10-19T10:07:33;8.10;;;3.20;;
1128;SDS011;553;51.038;7.216;2022-10-19T10:12:58;9.03;;;2.97;;
1128;SDS011;553;51.038;7.216;2022-10-19T10:15:26;7.50;;;3.10;;
1128;SDS011;553;51.038;7.216;2022-10-19T10:17:55;7.03;;;3.10;;
1128;SDS011;553;51.038;7.216;2022-10-19T10:20:24;4.77;;;2.50;;
1128;SDS011;553;51.038;7.216;2022-10-19T10:22:57;3.53;;;2.53;;
1128;SDS011;553;51.038;7.216;2022-10-19T10:25:30;3.80;;;2.43;;
1128;SDS011;553;51.038;7.216;2022-10-19T10:30:46;4.00;;;2.30;;
1128;SDS011;553;51.038;7.216;2022-10-19T10:33:20;3.20;;;2.10;;
1128;SDS011;553;51.038;7.216;2022-10-19T10:36:09;4.47;;;2.00;;
1128;SDS011;553;51.038;7.216;2022-10-19T10:38:41;4.77;;;2.63;;
1128;SDS011;553;51.038;7.216;2022-10-19T10:41:15;4.90;;;2.30;;
1128;SDS011;553;51.038;7.216;2022-10-19T10:44:05;6.83;;;2.50;;
1128;SDS011;553;51.038;7.216;2022-10-19T10:46:34;5.33;;;2.10;;
1128;SDS011;553;51.038;7.216;2022-10-19T10:49:28;4.30;;;1.80;;
1128;SDS011;553;51.038;7.216;2022-10-19T10:51:59;4.90;;;1.93;;
1128;SDS011;553;51.038;7.216;2022-10-19T10:54:31;4.67;;;2.00;;
1128;SDS011;553;51.038;7.216;2022-10-19T11:05:30;3.03;;;2.00;;
1128;SDS011;553;51.038;7.216;2022-10-19T11:10:44;2.53;;;1.63;;
1128;SDS011;553;51.038;7.216;2022-10-19T11:15:57;3.03;;;1.70;;
1128;SDS011;553;51.038;7.216;2022-10-19T11:18:29;3.97;;;1.90;;
1128;SDS011;553;51.038;7.216;2022-10-19T11:21:28;3.30;;;1.93;;
1128;SDS011;553;51.038;7.216;2022-10-19T11:24:21;5.63;;;2.27;;
1128;SDS011;553;51.038;7.216;2022-10-19T11:32:55;5.93;;;1.67;;
1128;SDS011;553;51.038;7.216;2022-10-19T11:38:21;4.50;;;1.63;;
1128;SDS011;553;51.038;7.216;2022-10-19T11:41:20;4.93;;;1.57;;
1128;SDS011;553;51.038;7.216;2022-10-19T11:50:28;5.10;;;1.47;;
1128;SDS011;553;51.038;7.216;2022-10-19T11:56:12;12.43;;;1.80;;
1128;SDS011;553;51.038;7.216;2022-10-19T12:04:22;4.10;;;1.17;;
1128;SDS011;553;51.038;7.216;2022-10-19T12:10:01;7.40;;;1.40;;
1128;SDS011;553;51.038;7.216;2022-10-19T12:12:36;4.20;;;1.50;;
1128;SDS011;553;51.038;7.216;2022-10-19T12:17:54;4.80;;;1.50;;
1128;SDS011;553;51.038;7.216;2022-10-19T12:20:34;4.93;;;1.50;;
1128;SDS011;553;51.038;7.216;2022-10-19T12:23:14;3.53;;;1.20;;
1128;SDS011;553;51.038;7.216;2022-10-19T12:25:52;4.60;;;1.53;;
1128;SDS011;553;51.038;7.216;2022-10-19T12:28:23;3.73;;;1.20;;
1128;SDS011;553;51.038;7.216;2022-10-19T12:30:53;3.60;;;1.40;;
1128;SDS011;553;51.038;7.216;2022-10-19T12:33:30;3.50;;;1.53;;
1128;SDS011;553;51.038;7.216;2022-10-19T12:41:35;5.63;;;1.50;;
1128;SDS011;553;51.038;7.216;2022-10-19T12:47:24;4.97;;;1.20;;
1128;SDS011;553;51.038;7.216;2022-10-19T12:49:52;2.90;;;1.00;;
1128;SDS011;553;51.038;7.216;2022-10-19T12:57:56;8.20;;;1.83;;
1128;SDS011;553;51.038;7.216;2022-10-19T13:00:26;1.47;;;1.03;;
1128;SDS011;553;51.038;7.216;2022-10-19T13:03:00;6.23;;;1.50;;
1128;SDS011;553;51.038;7.216;2022-10-19T13:05:28;6.27;;;1.53;;
1128;SDS011;553;51.038;7.216;2022-10-19T13:07:56;9.60;;;1.87;;
1128;SDS011;553;51.038;7.216;2022-10-19T13:10:25;1.97;;;1.50;;
1128;SDS011;553;51.038;7.216;2022-10-19T13:12:53;5.63;;;1.53;;
1128;SDS011;553;51.038;7.216;2022-10-19T13:15:54;3.53;;;1.50;;
1128;SDS011;553;51.038;7.216;2022-10-19T13:18:15;4.37;;;2.00;;
1128;SDS011;553;51.038;7.216;2022-10-19T13:35:22;6.53;;;1.87;;
1128;SDS011;553;51.038;7.216;2022-10-19T13:43:19;4.00;;;1.67;;
1128;SDS011;553;51.038;7.216;2022-10-19T13:46:09;7.10;;;2.13;;
1128;SDS011;553;51.038;7.216;2022-10-19T13:51:32;2.80;;;1.80;;
1128;SDS011;553;51.038;7.216;2022-10-19T13:57:13;9.23;;;2.47;;
1128;SDS011;553;51.038;7.216;2022-10-19T14:03:08;5.63;;;1.67;;
1128;SDS011;553;51.038;7.216;2022-10-19T14:06:00;7.80;;;2.03;;
1128;SDS011;553;51.038;7.216;2022-10-19T14:11:31;6.13;;;2.47;;
1128;SDS011;553;51.038;7.216;2022-10-19T14:14:10;5.07;;;2.07;;
1128;SDS011;553;51.038;7.216;2022-10-19T14:16:47;5.97;;;2.53;;
1128;SDS011;553;51.038;7.216;2022-10-19T14:19:42;5.77;;;3.27;;
1128;SDS011;553;51.038;7.216;2022-10-19T14:22:18;4.63;;;2.40;;
1128;SDS011;553;51.038;7.216;2022-10-19T14:24:51;3.83;;;2.47;;
1128;SDS011;553;51.038;7.216;2022-10-19T14:27:40;4.60;;;2.17;;
1128;SDS011;553;51.038;7.216;2022-10-19T14:30:19;9.37;;;2.30;;
1128;SDS011;553;51.038;7.216;2022-10-19T14:32:52;3.67;;;1.93;;
1128;SDS011;553;51.038;7.216;2022-10-19T14:35:28;5.50;;;2.20;;
1128;SDS011;553;51.038;7.216;2022-10-19T14:37:58;5.10;;;2.23;;
1128;SDS011;553;51.038;7.216;2022-10-19T14:40:26;4.60;;;1.70;;
1128;SDS011;553;51.038;7.216;2022-10-19T14:42:58;3.97;;;1.60;;
1128;SDS011;553;51.038;7.216;2022-10-19T14:45:27;4.40;;;2.33;;
1128;SDS011;553;51.038;7.216;2022-10-19T14:48:05;2.70;;;1.60;;
1128;SDS011;553;51.038;7.216;2022-10-19T14:50:46;4.43;;;1.43;;
1128;SDS011;553;51.038;7.216;2022-10-19T14:53:19;3.20;;;1.70;;
1128;SDS011;553;51.038;7.216;2022-10-19T14:56:12;3.80;;;1.53;;
1128;SDS011;553;51.038;7.216;2022-10-19T15:01:31;4.77;;;1.77;;
1128;SDS011;553;51.038;7.216;2022-10-19T15:03:59;5.33;;;2.53;;
1128;SDS011;553;51.038;7.216;2022-10-19T15:06:26;3.23;;;1.90;;
1128;SDS011;553;51.038;7.216;2022-10-19T15:08:56;2.93;;;0.93;;
1128;SDS011;553;51.038;7.216;2022-10-19T15:11:29;4.13;;;1.93;;
1128;SDS011;553;51.038;7.216;2022-10-19T15:14:00;5.33;;;2.10;;
1128;SDS011;553;51.038;7.216;2022-10-19T15:19:05;7.03;;;2.40;;
1128;SDS011;553;51.038;7.216;2022-10-19T15:21:42;9.37;;;2.30;;
1128;SDS011;553;51.038;7.216;2022-10-19T15:24:26;6.10;;;1.97;;
1128;SDS011;553;51.038;7.216;2022-10-19T15:26:53;3.97;;;2.00;;
1128;SDS011;553;51.038;7.216;2022-10-19T15:29:34;7.10;;;2.00;;
1128;SDS011;553;51.038;7.216;2022-10-19T15:32:13;5.73;;;1.60;;
1128;SDS011;553;51.038;7.216;2022-10-19T15:34:41;7.37;;;1.80;;
1128;SDS011;553;51.038;7.216;2022-10-19T15:37:14;4.80;;;1.60;;
1128;SDS011;553;51.038;7.216;2022-10-19T15:39:46;4.57;;;1.80;;
1128;SDS011;553;51.038;7.216;2022-10-19T15:42:20;4.83;;;1.77;;
1128;SDS011;553;51.038;7.216;2022-10-19T15:44:47;5.50;;;2.00;;
1128;SDS011;553;51.038;7.216;2022-10-19T15:52:13;5.33;;;1.83;;
1128;SDS011;553;51.038;7.216;2022-10-19T15:54:51;4.40;;;1.70;;
1128;SDS011;553;51.038;7.216;2022-10-19T15:59:53;5.23;;;1.70;;
1128;SDS011;553;51.038;7.216;2022-10-19T16:02:20;4.50;;;1.87;;
1128;SDS011;553;51.038;7.216;2022-10-19T16:04:50;6.83;;;2.10;;
1128;SDS011;553;51.038;7.216;2022-10-19T16:07:25;3.73;;;1.90;;
1128;SDS011;553;51.038;7.216;2022-10-19T16:09:54;3.63;;;1.50;;
1128;SDS011;553;51.038;7.216;2022-10-19T16:12:22;4.20;;;1.33;;
1128;SDS011;553;51.038;7.216;2022-10-19T16:14:49;6.70;;;2.10;;
1128;SDS011;553;51.038;7.216;2022-10-19T16:17:16;4.83;;;1.93;;
1128;SDS011;553;51.038;7.216;2022-10-19T16:19:43;4.83;;;2.37;;
1128;SDS011;553;51.038;7.216;2022-10-19T16:22:11;13.97;;;2.93;;
1128;SDS011;553;51.038;7.216;2022-10-19T16:24:38;5.00;;;1.80;;
1128;SDS011;553;51.038;7.216;2022-10-19T16:27:05;5.90;;;1.77;;
1128;SDS011;553;51.038;7.216;2022-10-19T16:29:33;4.40;;;1.80;;
1128;SDS011;553;51.038;7.216;2022-10-19T16:32:00;6.87;;;1.90;;
1128;SDS011;553;51.038;7.216;2022-10-19T16:34:26;3.50;;;1.80;;
1128;SDS011;553;51.038;7.216;2022-10-19T16:36:53;10.03;;;2.10;;
1128;SDS011;553;51.038;7.216;2022-10-19T16:39:20;4.43;;;1.83;;
1128;SDS011;553;51.038;7.216;2022-10-19T16:41:47;6.07;;;2.37;;
1128;SDS011;553;51.038;7.216;2022-10-19T16:44:13;24.77;;;2.87;;
1128;SDS011;553;51.038;7.216;2022-10-19T16:46:40;8.30;;;1.83;;
1128;SDS011;553;51.038;7.216;2022-10-19T16:49:07;13.33;;;2.30;;
1128;SDS011;553;51.038;7.216;2022-10-19T16:54:05;9.77;;;5.20;;
1128;SDS011;553;51.038;7.216;2022-10-19T16:56:33;5.33;;;2.53;;
1128;SDS011;553;51.038;7.216;2022-10-19T16:59:04;7.00;;;2.67;;
1128;SDS011;553;51.038;7.216;2022-10-19T17:01:32;6.27;;;3.27;;
1128;SDS011;553;51.038;7.216;2022-10-19T17:03:59;8.83;;;3.17;;
1128;SDS011;553;51.038;7.216;2022-10-19T17:06:26;4.20;;;2.00;;
1128;SDS011;553;51.038;7.216;2022-10-19T17:08:56;7.63;;;2.60;;
1128;SDS011;553;51.038;7.216;2022-10-19T17:11:43;6.23;;;2.00;;
1128;SDS011;553;51.038;7.216;2022-10-19T17:14:11;6.50;;;3.77;;
1128;SDS011;553;51.038;7.216;2022-10-19T17:16:38;7.50;;;3.57;;
1128;SDS011;553;51.038;7.216;2022-10-19T17:19:06;4.37;;;2.00;;
1128;SDS011;553;51.038;7.216;2022-10-19T17:21:34;4.60;;;2.27;;
1128;SDS011;553;51.038;7.216;2022-10-19T17:24:04;4.40;;;2.40;;
1128;SDS011;553;51.038;7.216;2022-10-19T17:26:39;5.67;;;3.00;;
1128;SDS011;553;51.038;7.216;2022-10-19T17:29:12;6.60;;;3.10;;
1128;SDS011;553;51.038;7.216;2022-10-19T17:31:39;7.83;;;3.70;;
1128;SDS011;553;51.038;7.216;2022-10-19T17:34:07;6.90;;;3.40;;
1128;SDS011;553;51.038;7.216;2022-10-19T17:36:35;5.40;;;2.70;;
1128;SDS011;553;51.038;7.216;2022-10-19T17:39:07;10.17;;;3.50;;
1128;SDS011;553;51.038;7.216;2022-10-19T17:41:36;7.93;;;3.13;;
1128;SDS011;553;51.038;7.216;2022-10-19T17:44:03;15.40;;;7.67;;
1128;SDS011;553;51.038;7.216;2022-10-19T17:46:32;7.27;;;3.53;;
1128;SDS011;553;51.038;7.216;2022-10-19T17:49:00;11.17;;;3.60;;
1128;SDS011;553;51.038;7.216;2022-10-19T17:51:27;7.87;;;3.87;;
1128;SDS011;553;51.038;7.216;2022-10-19T17:53:56;4.70;;;3.03;;
1128;SDS011;553;51.038;7.216;2022-10-19T17:56:25;8.07;;;3.87;;
1128;SDS011;553;51.038;7.216;2022-10-19T17:58:53;7.20;;;3.70;;
1128;SDS011;553;51.038;7.216;2022-10-19T18:01:21;7.30;;;3.50;;
1128;SDS011;553;51.038;7.216;2022-10-19T18:03:48;10.47;;;3.90;;
1128;SDS011;553;51.038;7.216;2022-10-19T18:06:20;7.87;;;4.07;;
1128;SDS011;553;51.038;7.216;2022-10-19T18:08:52;7.07;;;3.70;;
1128;SDS011;553;51.038;7.216;2022-10-19T18:11:21;9.90;;;3.33;;
1128;SDS011;553;51.038;7.216;2022-10-19T18:13:54;7.07;;;4.40;;
1128;SDS011;553;51.038;7.216;2022-10-19T18:16:26;7.97;;;3.50;;
1128;SDS011;553;51.038;7.216;2022-10-19T18:18:54;6.30;;;3.70;;
1128;SDS011;553;51.038;7.216;2022-10-19T18:21:23;7.53;;;3.93;;